createdAt,value
2019-02-02T00:00:42.557Z,41.11
2019-02-02T00:03:11.545Z,41.09
2019-02-02T00:05:40.547Z,41.05
2019-02-02T00:08:09.772Z,41.07
2019-02-02T00:10:39.130Z,41.19
2019-02-02T00:13:07.506Z,41.11
2019-02-02T00:15:35.903Z,41.05
2019-02-02T00:18:05.221Z,41.16
2019-02-02T00:20:33.610Z,41.21
2019-02-02T00:23:01.994Z,41.19
2019-02-02T00:25:30.401Z,41.32
2019-02-02T00:27:58.762Z,41.31
2019-02-02T00:30:27.147Z,41.40
2019-02-02T00:32:55.525Z,41.22
2019-02-02T00:35:23.916Z,41.24
2019-02-02T00:37:52.359Z,41.12
2019-02-02T00:40:21.090Z,41.39
2019-02-02T00:42:49.633Z,41.40
2019-02-02T00:45:19.757Z,41.36
2019-02-02T00:47:48.373Z,41.48
2019-02-02T00:50:17.373Z,41.42
2019-02-02T00:52:45.755Z,41.42
2019-02-02T00:55:18.790Z,41.47
2019-02-02T00:57:53.606Z,41.52
2019-02-02T01:00:25.359Z,41.86
2019-02-02T01:02:53.809Z,41.72
2019-02-02T01:05:23.438Z,41.79
2019-02-02T01:07:53.060Z,41.72
2019-02-02T01:10:38.319Z,41.89
2019-02-02T01:13:06.836Z,41.85
2019-02-02T01:15:35.353Z,41.79
2019-02-02T01:18:03.797Z,41.94
2019-02-02T01:20:32.325Z,42.03
2019-02-02T01:23:02.659Z,42.06
2019-02-02T01:25:31.068Z,42.04
2019-02-02T01:28:05.489Z,42.04
2019-02-02T01:30:29.611Z,42.27
2019-02-02T01:32:57.807Z,42.35
2019-02-02T01:35:26.268Z,42.17
2019-02-02T01:37:54.642Z,42.45
2019-02-02T01:40:25.417Z,42.48
2019-02-02T01:42:54.026Z,42.43
2019-02-02T01:45:29.596Z,42.48
2019-02-02T01:47:58.327Z,42.27
2019-02-02T01:50:27.806Z,42.43
2019-02-02T01:52:56.441Z,42.42
2019-02-02T01:55:24.887Z,42.48
2019-02-02T01:57:59.111Z,42.55
2019-02-02T02:00:30.319Z,42.59
2019-02-02T02:02:58.690Z,42.71
2019-02-02T02:05:27.137Z,42.73
2019-02-02T02:07:55.697Z,42.77
2019-02-02T02:10:26.155Z,42.64
2019-02-02T02:12:54.537Z,42.77
2019-02-02T02:15:22.981Z,42.85
2019-02-02T02:17:51.371Z,42.83
2019-02-02T02:20:22.279Z,42.99
2019-02-02T02:22:51.143Z,42.93
2019-02-02T02:25:20.762Z,42.84
2019-02-02T02:27:50.082Z,42.85
2019-02-02T02:30:23.838Z,42.99
2019-02-02T02:32:53.389Z,42.94
2019-02-02T02:35:22.020Z,43.06
2019-02-02T02:37:50.372Z,43.05
2019-02-02T02:40:25.166Z,43.17
2019-02-02T02:42:56.673Z,42.92
2019-02-02T02:45:25.045Z,43.02
2019-02-02T02:47:53.446Z,43.02
2019-02-02T02:50:24.846Z,43.03
2019-02-02T02:52:53.233Z,43.08
2019-02-02T02:55:21.616Z,43.19
2019-02-02T02:57:50.008Z,43.14
2019-02-02T03:00:27.428Z,43.25
2019-02-02T03:02:56.068Z,43.34
2019-02-02T03:05:24.683Z,43.21
2019-02-02T03:07:55.117Z,43.31
2019-02-02T03:10:25.430Z,43.40
2019-02-02T03:12:54.492Z,43.24
2019-02-02T03:15:23.269Z,43.22
2019-02-02T03:17:52.124Z,43.12
2019-02-02T03:20:20.738Z,42.86
2019-02-02T03:22:49.267Z,42.96
2019-02-02T03:25:23.466Z,42.78
2019-02-02T03:27:51.865Z,43.27
2019-02-02T03:30:21.860Z,43.12
2019-02-02T03:32:50.325Z,43.31
2019-02-02T03:35:23.807Z,43.44
2019-02-02T03:37:52.737Z,43.29
2019-02-02T03:40:24.390Z,43.32
2019-02-02T03:42:53.151Z,43.23
2019-02-02T03:45:23.536Z,43.48
2019-02-02T03:47:53.015Z,43.37
2019-02-02T03:50:21.557Z,43.46
2019-02-02T03:52:52.134Z,43.60
2019-02-02T03:55:20.653Z,43.63
2019-02-02T03:57:52.619Z,43.36
2019-02-02T04:00:23.963Z,43.42
2019-02-02T04:02:52.380Z,43.47
2019-02-02T04:05:26.077Z,43.75
2019-02-02T04:07:54.800Z,43.59
2019-02-02T04:10:23.561Z,43.68
2019-02-02T04:12:51.941Z,43.67
2019-02-02T04:15:20.649Z,43.63
2019-02-02T04:17:49.036Z,43.86
2019-02-02T04:20:19.455Z,44.03
2019-02-02T04:22:48.584Z,43.86
2019-02-02T04:25:18.108Z,44.08
2019-02-02T04:27:46.638Z,44.00
2019-02-02T04:30:28.899Z,44.19
2019-02-02T04:32:57.289Z,44.04
2019-02-02T04:35:25.674Z,44.33
2019-02-02T04:37:54.058Z,44.20
2019-02-02T04:40:22.591Z,44.34
2019-02-02T04:42:50.971Z,44.41
2019-02-02T04:45:20.637Z,44.35
2019-02-02T04:47:49.029Z,44.35
2019-02-02T04:50:20.706Z,44.47
2019-02-02T04:52:49.098Z,44.44
2019-02-02T04:55:19.437Z,44.45
2019-02-02T04:57:47.980Z,44.39
2019-02-02T05:00:21.882Z,44.41
2019-02-02T05:02:50.503Z,44.79
2019-02-02T05:05:19.948Z,44.48
2019-02-02T05:07:48.486Z,44.69
2019-02-02T05:10:22.419Z,44.60
2019-02-02T05:12:51.088Z,44.80
2019-02-02T05:15:19.632Z,44.74
2019-02-02T05:17:48.195Z,44.78
2019-02-02T05:20:19.214Z,44.60
2019-02-02T05:22:47.881Z,44.86
2019-02-02T05:25:16.396Z,45.08
2019-02-02T05:27:44.790Z,45.08
2019-02-02T05:30:18.902Z,44.48
2019-02-02T05:32:47.289Z,44.04
2019-02-02T05:35:15.665Z,44.39
2019-02-02T05:37:44.067Z,44.59
2019-02-02T05:40:15.745Z,44.74
2019-02-02T05:42:44.142Z,44.51
2019-02-02T05:45:15.654Z,44.61
2019-02-02T05:47:44.210Z,44.53
2019-02-02T05:50:16.032Z,44.51
2019-02-02T05:52:44.568Z,44.58
2019-02-02T05:55:15.137Z,44.75
2019-02-02T05:57:43.521Z,44.63
2019-02-02T06:00:34.747Z,44.67
2019-02-02T06:03:03.131Z,44.69
2019-02-02T06:05:31.515Z,44.78
2019-02-02T06:08:00.718Z,44.62
2019-02-02T06:10:29.109Z,45.04
2019-02-02T06:12:57.496Z,44.70
2019-02-02T06:15:28.506Z,44.96
2019-02-02T06:17:56.009Z,44.92
2019-02-02T06:20:24.386Z,44.84
2019-02-02T06:22:52.768Z,44.77
2019-02-02T06:25:21.228Z,45.05
2019-02-02T06:27:49.608Z,44.88
2019-02-02T06:30:20.438Z,44.84
2019-02-02T06:32:48.895Z,44.85
2019-02-02T06:35:18.527Z,45.03
2019-02-02T06:37:47.901Z,45.14
2019-02-02T06:40:17.256Z,45.12
2019-02-02T06:42:45.709Z,45.13
2019-02-02T06:45:23.123Z,44.98
2019-02-02T06:47:51.569Z,44.98
2019-02-02T06:50:19.957Z,45.22
2019-02-02T06:52:48.353Z,45.27
2019-02-02T06:55:17.581Z,45.36
2019-02-02T06:57:45.960Z,45.34
2019-02-02T07:00:26.449Z,44.87
2019-02-02T07:02:55.276Z,45.28
2019-02-02T07:05:23.749Z,45.13
2019-02-02T07:07:52.197Z,45.30
2019-02-02T07:10:23.211Z,45.37
2019-02-02T07:12:51.654Z,45.26
2019-02-02T07:15:22.587Z,45.56
2019-02-02T07:17:50.963Z,45.30
2019-02-02T07:20:19.346Z,45.46
2019-02-02T07:22:47.902Z,45.47
2019-02-02T07:25:16.302Z,45.26
2019-02-02T07:27:44.748Z,45.12
2019-02-02T07:30:28.649Z,45.62
2019-02-02T07:32:51.760Z,45.64
2019-02-02T07:35:20.321Z,45.74
2019-02-02T07:37:48.703Z,45.80
2019-02-02T07:40:18.436Z,45.11
2019-02-02T07:42:46.957Z,45.81
2019-02-02T07:45:20.784Z,45.60
2019-02-02T07:47:49.163Z,45.64
2019-02-02T07:50:17.997Z,45.45
2019-02-02T07:52:46.568Z,45.53
2019-02-02T07:55:17.579Z,45.83
2019-02-02T07:57:46.035Z,45.92
2019-02-02T08:00:23.636Z,45.65
2019-02-02T08:02:52.018Z,45.68
2019-02-02T08:05:20.421Z,45.75
2019-02-02T08:07:49.034Z,45.59
2019-02-02T08:10:17.673Z,45.64
2019-02-02T08:12:46.201Z,45.60
2019-02-02T08:15:17.544Z,45.64
2019-02-02T08:17:45.943Z,45.64
2019-02-02T08:20:15.286Z,45.59
2019-02-02T08:22:44.169Z,45.52
2019-02-02T08:25:14.910Z,45.50
2019-02-02T08:27:44.210Z,45.35
2019-02-02T08:30:16.588Z,45.53
2019-02-02T08:32:45.105Z,45.39
2019-02-02T08:35:14.873Z,45.79
2019-02-02T08:37:44.481Z,45.47
2019-02-02T08:40:15.376Z,45.31
2019-02-02T08:42:44.265Z,45.53
2019-02-02T08:45:14.096Z,45.77
2019-02-02T08:47:42.472Z,45.48
2019-02-02T08:50:19.721Z,45.53
2019-02-02T08:52:48.109Z,45.83
2019-02-02T08:55:16.576Z,45.75
2019-02-02T08:57:45.009Z,45.85
2019-02-02T09:00:17.302Z,45.92
2019-02-02T09:02:45.757Z,45.93
2019-02-02T09:05:17.098Z,45.88
2019-02-02T09:07:46.579Z,46.05
2019-02-02T09:10:20.245Z,45.88
2019-02-02T09:12:49.561Z,46.23
2019-02-02T09:15:19.096Z,46.26
2019-02-02T09:17:48.536Z,46.09
2019-02-02T09:20:17.124Z,46.22
2019-02-02T09:22:45.956Z,46.25
2019-02-02T09:25:16.567Z,46.13
2019-02-02T09:27:44.955Z,46.33
2019-02-02T09:30:19.424Z,46.30
2019-02-02T09:32:47.875Z,46.30
2019-02-02T09:35:16.333Z,46.31
2019-02-02T09:37:44.826Z,46.27
2019-02-02T09:40:18.569Z,46.21
2019-02-02T09:42:47.122Z,46.25
2019-02-02T09:45:17.947Z,46.37
2019-02-02T09:47:46.403Z,46.28
2019-02-02T09:50:20.008Z,46.34
2019-02-02T09:52:48.465Z,46.39
2019-02-02T09:55:19.543Z,46.36
2019-02-02T09:57:48.061Z,46.31
2019-02-02T10:00:24.586Z,46.25
2019-02-02T10:02:52.967Z,46.10
2019-02-02T10:05:21.428Z,46.37
2019-02-02T10:07:49.885Z,46.38
2019-02-02T10:10:22.484Z,46.19
2019-02-02T10:12:50.793Z,46.34
2019-02-02T10:15:19.514Z,46.26
2019-02-02T10:17:49.881Z,46.40
2019-02-02T10:20:20.127Z,46.29
2019-02-02T10:22:48.500Z,46.44
2019-02-02T10:25:22.242Z,46.52
2019-02-02T10:27:50.628Z,46.42
2019-02-02T10:30:30.323Z,46.33
2019-02-02T10:32:58.699Z,46.30
2019-02-02T10:35:27.184Z,46.49
2019-02-02T10:37:55.855Z,46.19
2019-02-02T10:40:24.244Z,46.19
2019-02-02T10:42:52.637Z,46.54
2019-02-02T10:45:21.465Z,46.56
2019-02-02T10:47:49.936Z,46.74
2019-02-02T10:50:21.004Z,46.48
2019-02-02T10:52:49.772Z,46.63
2019-02-02T10:55:18.294Z,46.91
2019-02-02T10:57:46.674Z,46.83
2019-02-02T11:00:37.010Z,47.02
2019-02-02T11:03:05.667Z,47.02
2019-02-02T11:05:34.138Z,47.16
2019-02-02T11:08:02.693Z,47.10
2019-02-02T11:10:32.654Z,46.70
2019-02-02T11:13:01.247Z,46.67
2019-02-02T11:15:29.697Z,46.71
2019-02-02T11:17:58.156Z,46.29
2019-02-02T11:20:37.105Z,46.49
2019-02-02T11:23:05.943Z,46.40
2019-02-02T11:25:34.762Z,46.25
2019-02-02T11:28:03.657Z,46.03
2019-02-02T11:30:32.413Z,46.03
2019-02-02T11:33:00.786Z,45.96
2019-02-02T11:35:29.163Z,46.09
2019-02-02T11:37:57.620Z,46.35
2019-02-02T11:40:29.050Z,46.57
2019-02-02T11:42:57.783Z,46.50
2019-02-02T11:45:26.308Z,46.59
2019-02-02T11:47:54.693Z,46.64
2019-02-02T11:50:23.740Z,46.67
2019-02-02T11:52:52.399Z,46.63
2019-02-02T11:55:22.827Z,46.62
2019-02-02T11:57:51.499Z,46.65
2019-02-02T12:00:22.562Z,46.62
2019-02-02T12:02:50.951Z,46.68
2019-02-02T12:05:19.673Z,46.57
2019-02-02T12:07:48.074Z,46.75
2019-02-02T12:10:22.219Z,46.82
2019-02-02T12:12:50.607Z,46.88
2019-02-02T12:15:19.662Z,46.72
2019-02-02T12:17:48.591Z,46.78
2019-02-02T12:20:19.356Z,46.57
2019-02-02T12:22:47.750Z,46.56
2019-02-02T12:25:16.600Z,46.51
2019-02-02T12:27:45.245Z,46.59
2019-02-02T12:30:22.552Z,46.59
2019-02-02T12:32:50.885Z,46.63
2019-02-02T12:35:27.672Z,46.78
2019-02-02T12:37:56.042Z,47.60
2019-02-02T12:40:26.261Z,47.66
2019-02-02T12:42:54.824Z,47.56
2019-02-02T12:45:38.197Z,47.77
2019-02-02T12:48:06.840Z,47.77
2019-02-02T12:50:35.211Z,47.76
2019-02-02T12:53:03.608Z,47.65
2019-02-02T12:55:31.999Z,47.58
2019-02-02T12:58:00.376Z,47.55
2019-02-02T13:00:28.766Z,47.63
2019-02-02T13:02:57.179Z,47.54
2019-02-02T13:05:25.633Z,47.24
2019-02-02T13:07:55.080Z,47.15
2019-02-02T13:10:29.390Z,47.36
2019-02-02T13:12:57.804Z,47.28
2019-02-02T13:15:26.172Z,47.43
2019-02-02T13:17:54.599Z,47.14
2019-02-02T13:20:22.996Z,46.96
2019-02-02T13:22:51.385Z,47.29
2019-02-02T13:25:23.130Z,47.20
2019-02-02T13:27:51.808Z,47.08
2019-02-02T13:30:35.069Z,46.91
2019-02-02T13:33:03.934Z,47.03
2019-02-02T13:35:34.756Z,47.05
2019-02-02T13:38:03.215Z,47.39
2019-02-02T13:40:31.613Z,47.42
2019-02-02T13:42:59.983Z,47.50
2019-02-02T13:45:28.361Z,47.28
2019-02-02T13:47:56.854Z,46.99
2019-02-02T13:50:25.293Z,47.31
2019-02-02T13:52:53.770Z,47.24
2019-02-02T13:55:22.205Z,47.18
2019-02-02T13:57:50.606Z,47.06
2019-02-02T14:00:24.369Z,47.08
2019-02-02T14:03:02.464Z,47.07
2019-02-02T14:05:23.202Z,46.71
2019-02-02T14:07:51.606Z,46.70
2019-02-02T14:10:22.695Z,46.61
2019-02-02T14:12:51.086Z,46.79
2019-02-02T14:15:19.474Z,47.11
2019-02-02T14:17:47.867Z,46.50
2019-02-02T14:20:17.223Z,46.67
2019-02-02T14:22:45.601Z,46.80
2019-02-02T14:25:15.993Z,47.04
2019-02-02T14:27:44.398Z,46.97
2019-02-02T14:30:15.481Z,47.14
2019-02-02T14:32:43.877Z,47.02
2019-02-02T14:35:18.001Z,46.60
2019-02-02T14:37:47.346Z,46.70
2019-02-02T14:40:18.074Z,46.59
2019-02-02T14:42:47.622Z,46.59
2019-02-02T14:45:18.336Z,46.68
2019-02-02T14:47:47.583Z,46.69
2019-02-02T14:50:19.124Z,46.62
2019-02-02T14:52:48.142Z,46.54
2019-02-02T14:58:01.321Z,46.59
2019-02-02T15:00:30.851Z,46.35
2019-02-02T15:02:59.374Z,45.98
2019-02-02T15:05:28.172Z,45.88
2019-02-02T15:07:56.636Z,45.95
2019-02-02T15:10:25.101Z,46.01
2019-02-02T15:12:53.667Z,46.03
2019-02-02T15:15:22.228Z,46.19
2019-02-02T15:17:50.661Z,46.05
2019-02-02T15:20:33.720Z,45.59
2019-02-02T15:23:02.179Z,45.46
2019-02-02T15:25:30.576Z,45.62
2019-02-02T15:27:58.965Z,45.74
2019-02-02T15:30:29.397Z,45.65
2019-02-02T15:32:57.840Z,45.99
2019-02-02T15:35:26.364Z,45.81
2019-02-02T15:37:54.742Z,46.01
2019-02-02T15:40:23.212Z,46.15
2019-02-02T15:42:51.681Z,46.47
2019-02-02T15:45:22.559Z,46.49
2019-02-02T15:47:51.007Z,46.45
2019-02-02T15:50:19.396Z,46.30
2019-02-02T15:52:48.288Z,46.22
2019-02-02T15:55:18.418Z,46.16
2019-02-02T15:57:46.895Z,46.18
2019-02-02T16:00:26.746Z,46.10
2019-02-02T16:02:55.200Z,46.04
2019-02-02T16:05:24.341Z,46.05
2019-02-02T16:07:52.895Z,45.98
2019-02-02T16:10:32.307Z,45.88
2019-02-02T16:13:01.431Z,45.82
2019-02-02T16:15:29.833Z,45.75
2019-02-02T16:17:58.219Z,45.62
2019-02-02T16:20:32.297Z,45.60
2019-02-02T16:23:00.686Z,45.61
2019-02-02T16:25:29.080Z,45.49
2019-02-02T16:27:57.474Z,45.50
2019-02-02T16:30:28.206Z,45.41
2019-02-02T16:32:56.658Z,45.37
2019-02-02T16:35:25.406Z,45.33
2019-02-02T16:37:53.877Z,45.39
2019-02-02T16:40:27.485Z,45.35
2019-02-02T16:42:56.631Z,45.29
2019-02-02T16:45:27.038Z,45.25
2019-02-02T16:47:55.480Z,45.28
2019-02-02T16:50:24.409Z,45.22
2019-02-02T16:52:52.861Z,45.35
2019-02-02T16:55:21.715Z,45.52
2019-02-02T16:57:50.165Z,45.15
2019-02-02T17:00:30.529Z,45.08
2019-02-02T17:02:58.988Z,44.83
2019-02-02T17:05:27.543Z,44.59
2019-02-02T17:07:56.002Z,45.09
2019-02-02T17:10:29.514Z,44.78
2019-02-02T17:12:57.953Z,44.90
2019-02-02T17:15:26.424Z,45.07
2019-02-02T17:17:54.890Z,45.07
2019-02-02T17:20:26.204Z,45.10
2019-02-02T17:22:54.588Z,45.25
2019-02-02T17:25:23.235Z,45.71
2019-02-02T17:27:51.577Z,45.57
2019-02-02T17:30:21.829Z,45.24
2019-02-02T17:32:50.850Z,45.66
2019-02-02T17:35:19.405Z,45.69
2019-02-02T17:37:47.795Z,45.71
2019-02-02T17:40:21.712Z,45.63
2019-02-02T17:42:50.089Z,45.50
2019-02-02T17:45:20.437Z,45.68
2019-02-02T17:47:49.457Z,45.50
2019-02-02T17:50:19.716Z,45.40
2019-02-02T17:52:48.102Z,45.37
2019-02-02T17:55:16.677Z,45.31
2019-02-02T17:57:45.298Z,44.91
2019-02-02T18:00:17.110Z,44.82
2019-02-02T18:02:45.507Z,44.71
2019-02-02T18:05:13.958Z,44.99
2019-02-02T18:07:42.418Z,44.93
2019-02-02T18:10:16.283Z,45.18
2019-02-02T18:12:44.670Z,45.22
2019-02-02T18:15:14.906Z,45.24
2019-02-02T18:17:43.733Z,45.42
2019-02-02T18:20:18.369Z,45.52
2019-02-02T18:22:46.762Z,46.22
2019-02-02T18:25:16.506Z,46.78
2019-02-02T18:27:45.213Z,47.00
2019-02-02T18:30:27.529Z,46.67
2019-02-02T18:32:55.985Z,47.12
2019-02-02T18:35:24.721Z,47.27
2019-02-02T18:37:53.107Z,47.46
2019-02-02T18:40:24.089Z,47.26
2019-02-02T18:42:53.254Z,46.92
2019-02-02T18:45:29.918Z,47.14
2019-02-02T18:47:58.303Z,46.63
2019-02-02T18:50:26.748Z,46.95
2019-02-02T18:52:56.779Z,46.86
2019-02-02T18:55:37.134Z,46.97
2019-02-02T18:58:05.956Z,46.67
2019-02-02T19:00:34.340Z,47.30
2019-02-02T19:03:03.357Z,47.07
2019-02-02T19:05:31.746Z,46.94
2019-02-02T19:08:00.172Z,46.66
2019-02-02T19:10:31.665Z,46.71
2019-02-02T19:13:00.110Z,46.82
2019-02-02T19:15:28.487Z,46.71
2019-02-02T19:17:56.882Z,46.65
2019-02-02T19:20:25.261Z,46.22
2019-02-02T19:22:56.871Z,46.49
2019-02-02T19:25:23.780Z,47.29
2019-02-02T19:27:52.172Z,46.97
2019-02-02T19:30:23.628Z,46.71
2019-02-02T19:32:52.090Z,47.52
2019-02-02T19:35:20.681Z,47.10
2019-02-02T19:37:49.075Z,46.65
2019-02-02T19:40:17.903Z,47.03
2019-02-02T19:42:46.369Z,46.87
2019-02-02T19:45:17.476Z,46.55
2019-02-02T19:47:45.873Z,46.43
2019-02-02T19:50:21.013Z,46.76
2019-02-02T19:52:49.511Z,46.90
2019-02-02T19:55:17.875Z,46.53
2019-02-02T19:57:46.537Z,46.71
2019-02-02T20:00:17.846Z,46.41
2019-02-02T20:02:46.232Z,46.90
2019-02-02T20:05:14.872Z,47.00
2019-02-02T20:07:43.334Z,46.70
2019-02-02T20:10:36.358Z,46.07
2019-02-02T20:13:06.760Z,46.14
2019-02-02T20:15:35.152Z,46.15
2019-02-02T20:18:09.904Z,46.34
2019-02-02T20:20:34.082Z,46.59
2019-02-02T20:23:02.475Z,46.59
2019-02-02T20:25:30.861Z,46.30
2019-02-02T20:27:59.259Z,46.91
2019-02-02T20:30:29.892Z,46.69
2019-02-02T20:32:58.495Z,45.70
2019-02-02T20:35:27.207Z,46.45
2019-02-02T20:37:55.666Z,46.58
2019-02-02T20:40:27.466Z,46.43
2019-02-02T20:42:57.139Z,46.64
2019-02-02T20:45:31.420Z,46.43
2019-02-02T20:47:59.812Z,47.29
2019-02-02T20:50:28.201Z,46.59
2019-02-02T20:52:56.595Z,46.58
2019-02-02T20:55:30.511Z,46.35
2019-02-02T20:57:58.919Z,45.99
2019-02-02T21:00:29.351Z,46.35
2019-02-02T21:02:58.316Z,46.12
2019-02-02T21:05:26.675Z,46.37
2019-02-02T21:07:55.073Z,46.45
2019-02-02T21:10:25.398Z,46.43
2019-02-02T21:12:53.937Z,46.46
2019-02-02T21:15:22.665Z,46.32
2019-02-02T21:17:51.162Z,46.69
2019-02-02T21:20:24.743Z,46.61
2019-02-02T21:22:54.328Z,46.65
2019-02-02T21:25:23.199Z,46.63
2019-02-02T21:27:51.600Z,46.56
2019-02-02T21:30:24.901Z,46.68
2019-02-02T21:32:53.431Z,47.01
2019-02-02T21:35:22.228Z,46.63
2019-02-02T21:37:50.633Z,46.78
2019-02-02T21:40:27.366Z,46.44
2019-02-02T21:42:55.890Z,46.29
2019-02-02T21:45:24.437Z,46.53
2019-02-02T21:47:53.183Z,46.38
2019-02-02T21:50:23.608Z,46.47
2019-02-02T21:52:52.235Z,46.06
2019-02-02T21:55:29.355Z,46.40
2019-02-02T21:57:57.755Z,46.49
2019-02-02T22:00:40.557Z,46.26
2019-02-02T22:03:09.137Z,46.07
2019-02-02T22:05:37.593Z,46.15
2019-02-02T22:08:06.817Z,45.94
2019-02-02T22:10:35.205Z,46.31
2019-02-02T22:13:03.763Z,46.14
2019-02-02T22:15:32.213Z,45.77
2019-02-02T22:18:01.610Z,46.26
2019-02-02T22:20:29.993Z,46.25
2019-02-02T22:22:58.392Z,46.28
2019-02-02T22:25:29.297Z,46.15
2019-02-02T22:27:57.694Z,46.14
2019-02-02T22:30:28.016Z,46.33
2019-02-02T22:32:56.415Z,46.11
2019-02-02T22:35:24.799Z,46.42
2019-02-02T22:37:53.271Z,45.62
2019-02-02T22:40:24.245Z,46.19
2019-02-02T22:42:52.712Z,46.21
2019-02-02T22:45:22.182Z,46.21
2019-02-02T22:47:51.078Z,46.14
2019-02-02T22:50:21.406Z,46.11
2019-02-02T22:53:09.258Z,46.32
2019-02-02T22:55:37.635Z,46.27
2019-02-02T22:58:06.757Z,46.09
2019-02-02T23:00:51.930Z,46.25
2019-02-02T23:03:26.124Z,46.41
2019-02-02T23:06:03.582Z,46.04
2019-02-02T23:08:47.113Z,46.37
2019-02-02T23:11:33.768Z,46.41
2019-02-02T23:14:21.858Z,46.44
2019-02-02T23:16:50.243Z,46.59
2019-02-02T23:19:18.644Z,46.63
2019-02-02T23:21:47.038Z,46.66
2019-02-02T23:24:15.437Z,46.58
2019-02-02T23:26:43.871Z,46.41
2019-02-02T23:29:12.229Z,46.60
2019-02-02T23:31:40.616Z,46.51
2019-02-02T23:34:09.010Z,46.48
2019-02-02T23:36:37.392Z,46.75
2019-02-02T23:39:08.487Z,46.49
2019-02-02T23:41:37.248Z,46.61
2019-02-02T23:44:05.650Z,46.84
2019-02-02T23:46:36.326Z,46.60
2019-02-02T23:49:05.005Z,46.67
2019-02-02T23:51:33.386Z,46.80
2019-02-02T23:54:01.780Z,46.52
2019-02-02T23:56:30.350Z,46.83
2019-02-02T23:58:58.830Z,46.90
